Time;durP1;ratioP1;P1;durP2;ratioP2;P2;SDS_P1;SDS_P2;PMS_P1;PMS_P2;Temp;Humidity;BMP_temperature;BMP_pressure;BME280_temperature;BME280_humidity;BME280_pressure;Samples;Min_cycle;Max_cycle;Signal;HPM_P1;HPM_P2
2023/07/10 00:00:06;;;;;;;6.95;4.28;;;24.90;72.30;;;;;;5032433;28;20068;-76
2023/07/10 00:02:31;;;;;;;6.20;3.38;;;24.80;72.60;;;;;;5032046;28;20032;-76
2023/07/10 00:04:57;;;;;;;6.53;3.67;;;24.80;72.80;;;;;;5032703;28;20029;-76
2023/07/10 00:07:22;;;;;;;6.40;3.72;;;24.70;73.00;;;;;;5032845;28;20029;-76
2023/07/10 00:09:49;;;;;;;6.18;3.97;;;24.70;73.10;;;;;;5032459;28;20025;-76
2023/07/10 00:12:20;;;;;;;5.35;3.70;;;24.60;73.30;;;;;;5016159;28;20037;-77
2023/07/10 00:14:46;;;;;;;7.22;4.30;;;24.60;73.60;;;;;;5034904;28;20017;-77
2023/07/10 00:17:13;;;;;;;6.97;3.88;;;24.50;73.80;;;;;;5035925;28;20033;-78
2023/07/10 00:19:41;;;;;;;9.63;4.32;;;24.40;74.10;;;;;;5035552;28;20030;-76
2023/07/10 00:22:07;;;;;;;7.32;3.78;;;24.40;74.20;;;;;;5023223;28;20036;-77
2023/07/10 00:24:32;;;;;;;8.10;5.03;;;24.30;74.40;;;;;;5039171;28;20033;-77
2023/07/10 00:26:58;;;;;;;10.07;4.63;;;24.30;74.80;;;;;;5021013;28;20028;-77
2023/07/10 00:29:26;;;;;;;8.40;4.35;;;24.30;75.00;;;;;;5052940;22;20077;-71
2023/07/10 00:31:52;;;;;;;5.65;3.83;;;24.20;75.10;;;;;;5037347;28;20361;-72
2023/07/10 00:34:18;;;;;;;6.35;4.30;;;24.20;75.20;;;;;;5048946;28;20029;-72
2023/07/10 00:36:50;;;;;;;9.93;4.25;;;24.10;75.30;;;;;;5045339;28;20044;-71
2023/07/10 00:39:23;;;;;;;8.73;4.32;;;24.10;75.40;;;;;;5043965;28;20025;-71
2023/07/10 00:41:54;;;;;;;6.03;3.63;;;24.10;75.60;;;;;;5045633;28;20383;-71
2023/07/10 00:44:23;;;;;;;5.82;3.30;;;24.00;75.50;;;;;;5026346;28;20021;-72
2023/07/10 00:46:56;;;;;;;6.05;3.63;;;24.00;75.60;;;;;;5044959;28;20050;-71
2023/07/10 00:49:40;;;;;;;6.72;4.00;;;23.90;75.80;;;;;;5027913;28;20491;-71
2023/07/10 00:52:21;;;;;;;7.88;3.75;;;23.90;76.10;;;;;;5040981;28;20036;-71
2023/07/10 00:54:51;;;;;;;5.90;3.80;;;23.80;76.20;;;;;;5029407;28;20026;-71
2023/07/10 00:57:33;;;;;;;8.68;3.90;;;23.80;76.20;;;;;;5024599;28;20075;-72
2023/07/10 01:00:01;;;;;;;7.30;4.28;;;23.80;76.30;;;;;;5046139;28;20017;-72
2023/07/10 01:02:26;;;;;;;10.05;4.45;;;23.70;76.50;;;;;;5043310;28;20025;-72
2023/07/10 01:05:00;;;;;;;8.98;3.90;;;23.80;76.60;;;;;;5047624;28;20644;-70
2023/07/10 01:07:30;;;;;;;11.40;4.07;;;23.80;76.60;;;;;;5045878;28;20029;-71
2023/07/10 01:10:00;;;;;;;7.13;3.42;;;23.70;76.60;;;;;;5038264;28;20069;-72
2023/07/10 01:12:28;;;;;;;5.53;3.58;;;23.70;76.80;;;;;;5043007;28;20031;-71
2023/07/10 01:14:53;;;;;;;7.68;3.72;;;23.60;76.70;;;;;;5046223;28;20017;-71
2023/07/10 01:17:19;;;;;;;6.85;3.70;;;23.70;76.60;;;;;;5053246;28;20100;-72
2023/07/10 01:19:46;;;;;;;6.97;3.80;;;23.60;76.40;;;;;;5031008;28;20021;-71
2023/07/10 01:22:13;;;;;;;6.85;4.25;;;23.60;76.20;;;;;;5050320;28;20528;-71
2023/07/10 01:24:38;;;;;;;8.27;3.95;;;23.60;75.90;;;;;;5055005;28;20029;-71
2023/07/10 01:27:07;;;;;;;5.70;3.55;;;23.60;75.60;;;;;;5032772;28;20032;-73
2023/07/10 01:29:42;;;;;;;8.73;4.25;;;23.60;75.40;;;;;;5054656;28;20086;-71
2023/07/10 01:32:10;;;;;;;6.45;3.60;;;23.60;75.30;;;;;;5032702;28;20305;-71
2023/07/10 01:34:40;;;;;;;6.43;3.80;;;23.60;74.90;;;;;;5045326;28;20242;-72
2023/07/10 01:37:07;;;;;;;9.13;3.72;;;23.60;74.90;;;;;;5028127;28;20488;-72
2023/07/10 01:39:37;;;;;;;6.88;3.63;;;23.60;75.30;;;;;;5030612;28;20496;-72
2023/07/10 01:42:03;;;;;;;5.13;3.42;;;23.60;75.40;;;;;;5045097;28;20021;-72
2023/07/10 01:44:32;;;;;;;7.05;3.70;;;23.60;75.40;;;;;;5048460;28;20387;-72
2023/07/10 01:47:02;;;;;;;6.75;3.95;;;23.50;75.30;;;;;;5048513;28;20484;-72
2023/07/10 01:49:32;;;;;;;6.03;3.65;;;23.50;75.80;;;;;;5050996;28;20094;-71
2023/07/10 01:51:59;;;;;;;9.57;3.58;;;23.50;75.50;;;;;;5045638;28;20108;-71
2023/07/10 01:54:24;;;;;;;8.05;4.07;;;23.50;75.80;;;;;;5032282;28;20326;-70
2023/07/10 01:56:51;;;;;;;10.32;3.63;;;23.50;76.70;;;;;;5034754;28;20032;-71
2023/07/10 01:59:17;;;;;;;6.55;3.75;;;23.40;77.40;;;;;;5044528;28;20018;-71
2023/07/10 02:01:42;;;;;;;9.35;3.70;;;23.40;77.70;;;;;;5048866;28;20111;-70
2023/07/10 02:04:08;;;;;;;8.88;4.35;;;23.40;78.10;;;;;;5047461;28;20116;-71
2023/07/10 02:06:35;;;;;;;6.53;3.80;;;23.30;78.40;;;;;;5041141;28;20028;-71
2023/07/10 02:09:02;;;;;;;8.20;3.78;;;23.30;78.90;;;;;;5049966;28;20021;-71
2023/07/10 02:11:28;;;;;;;6.60;4.13;;;23.30;79.30;;;;;;5049354;28;20033;-71
2023/07/10 02:13:53;;;;;;;5.70;3.45;;;23.20;79.50;;;;;;5046440;28;20025;-71
2023/07/10 02:16:19;;;;;;;10.75;3.95;;;23.20;79.60;;;;;;5044831;28;20419;-71
2023/07/10 02:18:45;;;;;;;8.02;3.85;;;23.20;79.60;;;;;;5041328;28;20033;-71
2023/07/10 02:21:10;;;;;;;7.85;4.20;;;23.20;79.60;;;;;;5049022;28;20423;-71
2023/07/10 02:23:38;;;;;;;8.13;3.70;;;23.20;79.60;;;;;;5045867;28;20029;-71
2023/07/10 02:26:04;;;;;;;5.65;3.47;;;23.20;79.40;;;;;;5032551;28;20119;-71
2023/07/10 02:28:30;;;;;;;8.00;3.97;;;23.20;79.10;;;;;;5044993;28;20033;-71
2023/07/10 02:30:56;;;;;;;10.05;4.43;;;23.20;78.90;;;;;;5040665;28;20023;-71
2023/07/10 02:33:22;;;;;;;6.15;3.53;;;23.10;78.90;;;;;;5041606;28;20025;-71
2023/07/10 02:35:48;;;;;;;8.40;4.10;;;23.10;79.10;;;;;;5044331;28;20021;-71
2023/07/10 02:38:15;;;;;;;6.10;3.83;;;23.00;79.20;;;;;;5046714;28;20025;-71
2023/07/10 02:40:43;;;;;;;7.95;4.30;;;23.00;79.50;;;;;;5039400;28;20047;-71
2023/07/10 02:43:09;;;;;;;8.82;4.40;;;23.00;79.60;;;;;;5047278;28;20064;-70
2023/07/10 02:45:35;;;;;;;5.97;3.70;;;23.00;79.60;;;;;;5047289;28;20044;-71
2023/07/10 02:48:01;;;;;;;6.68;3.63;;;23.00;80.30;;;;;;5033999;28;20032;-71
2023/07/10 02:50:26;;;;;;;7.15;4.10;;;23.00;80.10;;;;;;5045673;28;20390;-71
2023/07/10 02:52:52;;;;;;;6.75;3.83;;;22.90;80.20;;;;;;5046661;28;20083;-71
2023/07/10 02:55:18;;;;;;;9.93;3.78;;;22.90;80.20;;;;;;5041556;28;20029;-71
2023/07/10 02:57:44;;;;;;;6.75;4.20;;;22.90;80.30;;;;;;5047287;28;20041;-72
2023/07/10 03:00:10;;;;;;;7.50;3.47;;;23.00;80.50;;;;;;5032838;28;20037;-71
2023/07/10 03:02:35;;;;;;;6.25;4.22;;;23.00;80.30;;;;;;5047152;28;20036;-71
2023/07/10 03:05:01;;;;;;;8.40;3.72;;;23.00;80.00;;;;;;5044207;28;20471;-71
2023/07/10 03:07:27;;;;;;;7.47;3.83;;;22.90;79.60;;;;;;5042657;28;20079;-71
2023/07/10 03:09:53;;;;;;;7.85;3.80;;;22.90;79.50;;;;;;5048088;28;20025;-71
2023/07/10 03:12:21;;;;;;;6.93;3.88;;;22.90;79.60;;;;;;5046446;28;20075;-72
2023/07/10 03:14:47;;;;;;;7.03;3.80;;;22.90;80.00;;;;;;5048307;28;20476;-71
2023/07/10 03:17:12;;;;;;;9.07;4.10;;;22.90;80.30;;;;;;5046369;28;20017;-71
2023/07/10 03:19:38;;;;;;;8.18;3.88;;;22.90;80.30;;;;;;5043536;28;20021;-71
2023/07/10 03:22:04;;;;;;;7.57;3.70;;;22.90;80.10;;;;;;5044786;28;20467;-71
2023/07/10 03:24:29;;;;;;;7.88;3.80;;;22.90;79.80;;;;;;5042995;28;20024;-71
2023/07/10 03:26:55;;;;;;;6.72;3.50;;;22.90;79.60;;;;;;5048496;28;20024;-71
2023/07/10 03:29:21;;;;;;;6.78;3.80;;;22.90;79.60;;;;;;5043835;28;20053;-71
2023/07/10 03:31:46;;;;;;;9.88;4.13;;;23.00;79.70;;;;;;5040812;28;20029;-71
2023/07/10 03:34:12;;;;;;;6.85;3.70;;;23.00;79.80;;;;;;5037627;28;20029;-70
2023/07/10 03:36:38;;;;;;;12.32;4.32;;;23.00;79.80;;;;;;5046022;28;20029;-71
2023/07/10 03:39:04;;;;;;;6.55;4.05;;;22.90;79.80;;;;;;5043241;28;20040;-71
2023/07/10 03:41:31;;;;;;;6.53;3.95;;;23.00;79.90;;;;;;5042416;28;20028;-71
2023/07/10 03:43:56;;;;;;;8.32;4.18;;;23.00;79.80;;;;;;5046563;28;20067;-71
2023/07/10 03:46:22;;;;;;;6.75;3.97;;;23.00;79.90;;;;;;5046246;28;20103;-71
2023/07/10 03:48:48;;;;;;;8.25;3.83;;;23.00;79.80;;;;;;5055229;28;20049;-70
2023/07/10 03:51:15;;;;;;;8.05;3.38;;;23.00;79.80;;;;;;5051636;28;20051;-71
2023/07/10 03:53:40;;;;;;;8.02;4.20;;;23.00;79.70;;;;;;5052952;28;20139;-71
2023/07/10 03:56:06;;;;;;;6.57;3.63;;;23.00;79.70;;;;;;5028935;28;20034;-71
2023/07/10 03:58:34;;;;;;;8.20;4.38;;;23.00;79.60;;;;;;5034277;28;20024;-71
2023/07/10 04:01:02;;;;;;;7.80;4.03;;;23.00;80.00;;;;;;5043001;28;20513;-71
2023/07/10 04:03:30;;;;;;;7.50;4.72;;;23.00;79.80;;;;;;5051000;28;20388;-71
2023/07/10 04:05:58;;;;;;;8.85;4.32;;;23.00;79.80;;;;;;5039850;28;20045;-71
2023/07/10 04:08:29;;;;;;;9.52;4.32;;;23.00;79.80;;;;;;5047147;28;20113;-71
2023/07/10 04:10:56;;;;;;;6.57;3.90;;;23.00;79.90;;;;;;5040610;28;20356;-71
2023/07/10 04:13:23;;;;;;;10.27;3.78;;;23.00;79.90;;;;;;5027278;28;20117;-71
2023/07/10 04:16:25;;;;;;;8.93;4.20;;;23.00;80.60;;;;;;5037420;28;20578;-71
2023/07/10 04:18:52;;;;;;;10.80;4.25;;;23.00;80.40;;;;;;5013704;28;20053;-71
2023/07/10 04:21:27;;;;;;;8.63;4.05;;;22.90;80.20;;;;;;5042448;28;20120;-70
2023/07/10 04:23:54;;;;;;;8.05;3.80;;;22.90;80.30;;;;;;5041860;28;20021;-70
2023/07/10 04:26:25;;;;;;;8.65;4.43;;;23.00;81.10;;;;;;5045375;28;20430;-70
2023/07/10 04:28:53;;;;;;;7.03;4.05;;;22.90;82.10;;;;;;5050266;28;20043;-70
2023/07/10 04:31:19;;;;;;;8.07;3.88;;;23.00;82.80;;;;;;5052934;28;20083;-70
2023/07/10 04:33:45;;;;;;;9.93;4.22;;;22.90;83.80;;;;;;5046432;28;20029;-71
2023/07/10 04:36:11;;;;;;;5.88;3.83;;;22.90;83.70;;;;;;5046470;28;20372;-71
2023/07/10 04:38:36;;;;;;;9.02;3.78;;;22.90;83.30;;;;;;5034843;28;20163;-71
2023/07/10 04:41:05;;;;;;;4.68;3.60;;;22.80;84.30;;;;;;5043905;28;20591;-71
2023/07/10 04:43:32;;;;;;;13.52;4.05;;;22.80;85.20;;;;;;5045570;28;20391;-71
2023/07/10 04:46:00;;;;;;;6.88;3.88;;;22.70;85.20;;;;;;5046266;28;20021;-72
2023/07/10 04:48:26;;;;;;;7.95;3.63;;;22.70;83.90;;;;;;5044231;28;20108;-72
2023/07/10 04:50:54;;;;;;;7.65;3.75;;;22.60;83.40;;;;;;5043315;28;20059;-72
2023/07/10 04:53:21;;;;;;;8.15;4.15;;;22.60;84.00;;;;;;5043410;28;20427;-72
2023/07/10 04:55:52;;;;;;;8.05;3.85;;;22.60;85.00;;;;;;5041009;28;20109;-72
2023/07/10 04:58:18;;;;;;;7.32;4.00;;;22.60;85.40;;;;;;5052366;28;20029;-72
2023/07/10 05:00:50;;;;;;;5.47;3.65;;;22.60;85.30;;;;;;5036605;28;20032;-72
2023/07/10 05:03:16;;;;;;;12.95;4.65;;;22.60;85.10;;;;;;5051428;28;20039;-71
2023/07/10 05:05:50;;;;;;;7.80;3.80;;;22.60;85.00;;;;;;5036864;28;20112;-72
2023/07/10 05:08:15;;;;;;;9.27;4.32;;;22.70;84.60;;;;;;5048996;28;20051;-72
2023/07/10 05:10:43;;;;;;;8.77;4.05;;;22.70;84.50;;;;;;5047968;28;20072;-71
2023/07/10 05:13:09;;;;;;;7.45;4.32;;;22.80;84.30;;;;;;5050920;28;20447;-72
2023/07/10 05:15:34;;;;;;;5.63;3.80;;;22.80;84.40;;;;;;5045167;28;20044;-71
2023/07/10 05:18:00;;;;;;;7.47;4.20;;;22.80;84.50;;;;;;5037176;28;20024;-71
2023/07/10 05:20:25;;;;;;;7.95;4.28;;;22.90;84.30;;;;;;5056186;28;20056;-71
2023/07/10 05:22:51;;;;;;;9.05;3.65;;;22.90;84.50;;;;;;5054585;28;20415;-71
2023/07/10 05:25:18;;;;;;;10.93;4.38;;;22.90;84.50;;;;;;5048447;28;20059;-71
2023/07/10 05:27:43;;;;;;;9.18;4.13;;;22.90;85.30;;;;;;5046170;28;20026;-71
2023/07/10 05:30:09;;;;;;;5.13;3.47;;;22.90;85.20;;;;;;5044851;28;20450;-71
2023/07/10 05:32:35;;;;;;;7.78;3.85;;;22.90;85.40;;;;;;5039276;28;20047;-71
2023/07/10 05:35:00;;;;;;;10.93;4.53;;;22.90;85.80;;;;;;5049187;28;20503;-72
2023/07/10 05:37:26;;;;;;;8.40;4.20;;;23.00;85.40;;;;;;5047327;28;20029;-72
2023/07/10 05:39:52;;;;;;;9.50;4.00;;;23.00;85.60;;;;;;5023461;28;20075;-71
2023/07/10 05:42:18;;;;;;;9.50;5.03;;;22.90;86.70;;;;;;5040830;28;20035;-72
2023/07/10 05:44:43;;;;;;;10.35;3.97;;;22.80;89.70;;;;;;5048212;28;20032;-71
2023/07/10 05:47:09;;;;;;;8.93;4.20;;;22.70;90.30;;;;;;5043040;28;20038;-71
2023/07/10 05:49:35;;;;;;;8.48;4.13;;;22.60;90.30;;;;;;5043536;28;20068;-71
2023/07/10 05:52:00;;;;;;;11.10;4.05;;;22.60;90.80;;;;;;5035726;28;20391;-70
2023/07/10 05:54:26;;;;;;;8.35;4.43;;;22.60;90.50;;;;;;5041658;28;20025;-72
2023/07/10 05:56:51;;;;;;;9.68;4.50;;;22.70;90.80;;;;;;5042224;28;20104;-70
2023/07/10 05:59:17;;;;;;;11.02;4.65;;;22.70;90.80;;;;;;5021803;28;20029;-73
2023/07/10 06:01:43;;;;;;;8.00;4.10;;;22.80;91.10;;;;;;5041112;28;20031;-69
2023/07/10 06:04:09;;;;;;;12.63;5.13;;;22.90;90.90;;;;;;5042504;28;26192;-70
2023/07/10 06:06:34;;;;;;;9.40;4.63;;;23.00;91.00;;;;;;5039903;28;20095;-71
2023/07/10 06:09:00;;;;;;;7.03;4.38;;;23.10;91.10;;;;;;5048340;28;20024;-71
2023/07/10 06:11:25;;;;;;;7.43;4.30;;;23.10;91.40;;;;;;5025685;28;20025;-71
2023/07/10 06:13:51;;;;;;;8.30;4.63;;;23.20;91.40;;;;;;5022213;28;20029;-71
2023/07/10 06:16:17;;;;;;;11.48;5.18;;;23.20;91.10;;;;;;5020084;28;20897;-71
2023/07/10 06:18:43;;;;;;;9.23;4.97;;;23.30;91.30;;;;;;5039449;28;20083;-71
2023/07/10 06:21:10;;;;;;;11.98;4.47;;;23.30;91.60;;;;;;5044263;28;20036;-68
2023/07/10 06:23:35;;;;;;;10.35;5.28;;;23.30;91.70;;;;;;5038754;28;20026;-72
2023/07/10 06:26:02;;;;;;;7.28;4.38;;;23.30;91.70;;;;;;5037858;28;20095;-73
2023/07/10 06:28:30;;;;;;;12.90;4.88;;;23.40;91.70;;;;;;5042015;28;20029;-72
2023/07/10 06:30:58;;;;;;;9.57;4.65;;;23.40;91.10;;;;;;5049523;22;20137;-68
2023/07/10 06:33:25;;;;;;;9.70;5.00;;;23.40;91.20;;;;;;5042077;28;20035;-70
2023/07/10 06:35:51;;;;;;;9.23;5.32;;;23.40;91.20;;;;;;5034267;28;20032;-70
2023/07/10 06:38:16;;;;;;;10.60;4.40;;;23.50;90.80;;;;;;5024114;28;20025;-68
2023/07/10 06:40:42;;;;;;;11.57;4.60;;;23.60;90.90;;;;;;5008658;28;20061;-68
2023/07/10 06:43:08;;;;;;;15.18;5.00;;;23.60;91.00;;;;;;5021046;28;20867;-68
2023/07/10 06:45:34;;;;;;;13.63;5.35;;;23.60;91.10;;;;;;5015588;28;20021;-67
2023/07/10 06:47:59;;;;;;;15.52;5.07;;;23.60;91.30;;;;;;5023045;28;20832;-71
2023/07/10 06:50:25;;;;;;;11.13;5.18;;;23.70;91.50;;;;;;5034162;28;20034;-75
2023/07/10 06:52:51;;;;;;;10.52;4.82;;;23.70;91.50;;;;;;5016369;28;20025;-76
2023/07/10 06:55:17;;;;;;;9.32;5.05;;;23.80;91.70;;;;;;5033946;28;20029;-74
2023/07/10 06:57:43;;;;;;;12.60;5.90;;;23.80;91.70;;;;;;5033756;28;20490;-74
2023/07/10 07:00:12;;;;;;;8.75;4.88;;;23.90;91.70;;;;;;5033499;28;20022;-75
2023/07/10 07:02:38;;;;;;;7.20;4.75;;;23.90;91.50;;;;;;5033484;28;20542;-75
2023/07/10 07:05:05;;;;;;;9.82;4.72;;;24.00;91.50;;;;;;5033473;28;20145;-74
2023/07/10 07:07:30;;;;;;;10.48;4.85;;;24.00;91.40;;;;;;5033883;28;20071;-75
2023/07/10 07:09:56;;;;;;;7.57;4.90;;;24.10;91.60;;;;;;5053228;28;20523;-75
2023/07/10 07:12:21;;;;;;;10.20;4.68;;;24.10;91.60;;;;;;5053667;28;20036;-75
2023/07/10 07:14:47;;;;;;;8.57;4.78;;;24.20;91.50;;;;;;5035736;28;20025;-74
2023/07/10 07:17:14;;;;;;;8.23;4.68;;;24.30;91.80;;;;;;5038490;28;20116;-74
2023/07/10 07:19:41;;;;;;;10.18;5.00;;;24.40;91.30;;;;;;5033714;28;20018;-74
2023/07/10 07:22:06;;;;;;;11.85;5.20;;;24.50;91.20;;;;;;5033272;28;20052;-74
2023/07/10 07:24:32;;;;;;;9.70;4.60;;;24.60;91.00;;;;;;5015299;28;20552;-74
2023/07/10 07:26:59;;;;;;;13.50;4.70;;;24.70;91.00;;;;;;5033091;28;20036;-73
2023/07/10 07:29:28;;;;;;;7.15;4.50;;;24.70;91.00;;;;;;5032455;28;20025;-73
2023/07/10 07:31:54;;;;;;;11.30;4.93;;;24.90;91.00;;;;;;5032723;28;20071;-73
2023/07/10 07:34:20;;;;;;;7.50;4.65;;;24.90;91.00;;;;;;5032701;28;20029;-74
2023/07/10 07:36:49;;;;;;;11.18;5.15;;;25.00;91.10;;;;;;5032448;28;20056;-73
2023/07/10 07:39:15;;;;;;;7.63;4.78;;;25.10;91.20;;;;;;5035903;28;20408;-76
2023/07/10 07:41:41;;;;;;;10.75;5.35;;;25.30;90.90;;;;;;5034061;28;20021;-75
2023/07/10 07:44:06;;;;;;;9.65;5.60;;;25.30;90.80;;;;;;5036867;28;20029;-75
2023/07/10 07:46:32;;;;;;;9.93;5.18;;;25.40;90.80;;;;;;5052397;28;20048;-76
2023/07/10 07:48:58;;;;;;;10.93;5.40;;;25.60;90.70;;;;;;5052275;28;20050;-75
2023/07/10 07:51:24;;;;;;;11.75;5.03;;;25.70;90.70;;;;;;5037053;28;20033;-75
2023/07/10 07:54:04;;;;;;;8.52;4.13;;;25.80;90.20;;;;;;5032926;28;20030;-75
2023/07/10 07:56:30;;;;;;;7.18;4.30;;;25.90;90.00;;;;;;5034833;28;20056;-75
2023/07/10 07:58:56;;;;;;;7.45;3.90;;;26.00;89.80;;;;;;5036817;28;20036;-75
2023/07/10 08:01:21;;;;;;;5.45;4.03;;;26.20;89.60;;;;;;5053288;28;20368;-75
2023/07/10 08:03:47;;;;;;;8.30;4.28;;;26.30;89.10;;;;;;5053082;28;20025;-76
2023/07/10 08:06:12;;;;;;;8.02;4.68;;;26.40;88.60;;;;;;5053145;28;20079;-76
2023/07/10 08:08:38;;;;;;;5.63;4.43;;;26.50;88.70;;;;;;5046662;28;20024;-75
2023/07/10 08:11:06;;;;;;;7.20;4.10;;;26.60;89.00;;;;;;5032408;28;20047;-74
2023/07/10 08:13:32;;;;;;;7.28;3.92;;;26.60;88.30;;;;;;5032224;28;20388;-74
2023/07/10 08:15:58;;;;;;;7.53;4.13;;;26.70;88.10;;;;;;5031298;28;20027;-74
2023/07/10 08:18:24;;;;;;;7.95;4.00;;;26.80;87.60;;;;;;5036098;28;20025;-71
2023/07/10 08:20:50;;;;;;;7.28;3.65;;;26.90;87.40;;;;;;5023079;28;20033;-69
2023/07/10 08:23:15;;;;;;;6.03;4.32;;;27.00;87.00;;;;;;5020693;28;20080;-71
2023/07/10 08:25:41;;;;;;;18.02;7.30;;;27.10;86.50;;;;;;5028421;28;20037;-76
2023/07/10 08:28:07;;;;;;;8.93;4.65;;;27.10;86.20;;;;;;5012441;28;20037;-74
2023/07/10 08:30:32;;;;;;;7.82;4.30;;;27.20;85.60;;;;;;5012684;28;20077;-74
2023/07/10 08:32:58;;;;;;;8.73;3.97;;;27.30;85.20;;;;;;5014287;28;20388;-74
2023/07/10 08:35:23;;;;;;;7.43;4.22;;;27.40;85.20;;;;;;5012087;28;20024;-74
2023/07/10 08:37:50;;;;;;;6.85;3.80;;;27.50;85.00;;;;;;5037820;28;20025;-75
2023/07/10 08:40:29;;;;;;;6.93;3.97;;;27.60;84.80;;;;;;5052021;28;20048;-74
2023/07/10 08:42:55;;;;;;;5.47;3.75;;;27.70;84.40;;;;;;5035929;28;20029;-74
2023/07/10 08:45:34;;;;;;;7.93;4.07;;;27.90;83.00;;;;;;5032047;28;20383;-74
2023/07/10 08:48:21;;;;;;;9.60;4.80;;;27.90;83.00;;;;;;5032588;28;20471;-74
2023/07/10 08:50:47;;;;;;;7.00;4.47;;;28.00;83.00;;;;;;5033214;28;20037;-74
2023/07/10 08:53:16;;;;;;;10.70;4.40;;;28.10;82.50;;;;;;5017260;28;20116;-73
2023/07/10 08:55:42;;;;;;;7.78;4.38;;;28.10;82.20;;;;;;5031883;28;20035;-73
2023/07/10 08:58:22;;;;;;;7.15;3.95;;;28.10;82.30;;;;;;5031515;28;20447;-74
2023/07/10 09:00:51;;;;;;;7.80;4.07;;;28.20;82.60;;;;;;5035512;28;20029;-73
2023/07/10 09:03:34;;;;;;;5.00;4.00;;;28.20;82.00;;;;;;5013604;28;20029;-73
2023/07/10 09:06:01;;;;;;;4.83;4.20;;;28.30;82.00;;;;;;5042297;28;20063;-73
2023/07/10 09:08:28;;;;;;;7.22;4.15;;;28.30;82.10;;;;;;5031150;28;20530;-73
2023/07/10 09:10:57;;;;;;;6.60;4.07;;;28.40;81.80;;;;;;5009486;28;20395;-72
2023/07/10 09:14:11;;;;;;;8.55;4.15;;;28.50;81.30;;;;;;5019390;28;20025;-72
2023/07/10 09:16:36;;;;;;;6.90;4.03;;;28.60;81.10;;;;;;5016415;28;20041;-73
2023/07/10 09:19:18;;;;;;;6.47;4.28;;;28.60;81.40;;;;;;5030892;28;20033;-73
2023/07/10 09:21:44;;;;;;;6.63;4.05;;;28.70;81.10;;;;;;5032358;28;20040;-73
2023/07/10 09:24:17;;;;;;;8.93;5.25;;;28.90;81.10;;;;;;5029368;28;20502;-73
2023/07/10 09:26:43;;;;;;;7.05;4.70;;;29.00;80.30;;;;;;5030629;28;20179;-73
2023/07/10 09:29:14;;;;;;;8.45;4.30;;;29.10;80.50;;;;;;5029419;28;20153;-74
2023/07/10 09:31:44;;;;;;;6.38;4.30;;;29.20;80.40;;;;;;5028117;28;20637;-72
2023/07/10 09:34:11;;;;;;;7.55;4.18;;;29.30;80.40;;;;;;5031608;28;20392;-73
2023/07/10 09:36:36;;;;;;;9.55;4.38;;;29.40;79.50;;;;;;5034837;28;20097;-72
2023/07/10 09:39:03;;;;;;;8.65;3.97;;;29.40;78.80;;;;;;5034520;28;20534;-72
2023/07/10 09:41:29;;;;;;;7.85;4.22;;;29.50;78.90;;;;;;5034746;28;20494;-72
2023/07/10 09:44:10;;;;;;;6.38;4.35;;;29.50;78.40;;;;;;5034289;28;20017;-73
2023/07/10 09:46:36;;;;;;;7.45;4.25;;;29.50;78.40;;;;;;5034641;28;20051;-73
2023/07/10 09:49:12;;;;;;;5.88;4.05;;;29.50;78.10;;;;;;5038979;28;20033;-73
2023/07/10 09:51:50;;;;;;;4.28;3.55;;;29.50;77.20;;;;;;5042701;28;20064;-73
2023/07/10 09:54:16;;;;;;;5.30;3.53;;;29.40;77.50;;;;;;5016648;28;20028;-73
2023/07/10 09:56:42;;;;;;;7.70;4.70;;;29.30;77.80;;;;;;5034279;28;20025;-73
2023/07/10 09:59:30;;;;;;;8.10;4.10;;;29.30;78.00;;;;;;5034373;28;20468;-73
2023/07/10 10:01:55;;;;;;;7.57;4.35;;;29.40;78.40;;;;;;5003770;28;20125;-73
2023/07/10 10:04:27;;;;;;;6.40;4.13;;;29.40;78.10;;;;;;5014208;28;20503;-73
2023/07/10 10:07:19;;;;;;;7.50;4.45;;;29.50;78.00;;;;;;4996577;28;20021;-73
2023/07/10 10:09:45;;;;;;;4.75;3.85;;;29.50;78.00;;;;;;5014184;28;20029;-73
2023/07/10 10:12:27;;;;;;;5.43;4.55;;;29.50;78.20;;;;;;5014083;28;20029;-73
2023/07/10 10:15:02;;;;;;;6.18;4.93;;;29.50;78.40;;;;;;5024259;28;20021;-73
2023/07/10 10:17:32;;;;;;;8.57;4.35;;;29.60;78.10;;;;;;5033845;28;20033;-72
2023/07/10 10:20:09;;;;;;;7.20;3.92;;;29.70;77.70;;;;;;5033476;28;20033;-72
2023/07/10 10:22:34;;;;;;;7.95;4.13;;;29.80;77.40;;;;;;5033459;28;20033;-73
2023/07/10 10:25:00;;;;;;;6.07;4.07;;;29.80;76.60;;;;;;5033495;28;20110;-73
2023/07/10 10:27:54;;;;;;;5.53;4.20;;;29.80;76.50;;;;;;5033725;28;20033;-73
2023/07/10 10:30:54;;;;;;;6.90;4.10;;;29.70;76.50;;;;;;5030794;28;20045;-73
2023/07/10 10:33:48;;;;;;;9.27;4.43;;;29.80;77.10;;;;;;5007282;28;20492;-73
2023/07/10 10:36:48;;;;;;;11.35;4.10;;;29.90;76.90;;;;;;5033270;28;20013;-73
2023/07/10 10:39:35;;;;;;;7.95;4.53;;;29.90;75.60;;;;;;4978074;28;20511;-72
2023/07/10 10:42:10;;;;;;;6.05;4.20;;;29.90;76.20;;;;;;5033175;28;20025;-72
2023/07/10 10:44:55;;;;;;;6.57;4.35;;;29.90;75.40;;;;;;5029761;28;20037;-72
2023/07/10 10:47:23;;;;;;;7.85;4.22;;;29.90;75.90;;;;;;5015017;28;20471;-72
2023/07/10 10:50:01;;;;;;;5.85;3.92;;;29.90;76.40;;;;;;5014216;28;20060;-73
2023/07/10 10:52:51;;;;;;;6.65;4.68;;;30.00;76.70;;;;;;5020614;28;20048;-73
2023/07/10 10:55:32;;;;;;;8.95;5.93;;;30.10;76.50;;;;;;5053136;28;20021;-72
2023/07/10 10:58:04;;;;;;;9.48;4.38;;;30.20;77.40;;;;;;5052969;28;20033;-73
2023/07/10 11:00:49;;;;;;;10.27;4.70;;;30.30;77.10;;;;;;5050116;28;20010;-76
2023/07/10 11:03:37;;;;;;;6.93;4.55;;;30.50;76.90;;;;;;5033328;28;20104;-76
2023/07/10 11:06:29;;;;;;;7.18;4.70;;;30.60;76.50;;;;;;5033651;28;20494;-76
2023/07/10 11:08:59;;;;;;;11.05;4.40;;;30.60;76.50;;;;;;5033417;28;20143;-76
2023/07/10 11:11:38;;;;;;;9.38;4.93;;;30.70;76.40;;;;;;5033360;28;20557;-77
2023/07/10 11:14:04;;;;;;;10.52;5.05;;;30.80;77.00;;;;;;5033037;28;20022;-76
2023/07/10 11:16:32;;;;;;;6.03;4.85;;;30.90;76.30;;;;;;5033004;28;20017;-76
2023/07/10 11:19:00;;;;;;;7.78;4.75;;;30.90;76.20;;;;;;5032784;28;20024;-76
2023/07/10 11:21:26;;;;;;;6.32;4.65;;;30.90;75.50;;;;;;5033266;28;20562;-76
2023/07/10 11:23:51;;;;;;;6.68;5.03;;;31.00;75.50;;;;;;5032717;28;20104;-76
2023/07/10 11:26:23;;;;;;;8.15;4.57;;;31.00;74.70;;;;;;5032938;28;20100;-76
2023/07/10 11:28:51;;;;;;;12.45;5.10;;;31.00;74.90;;;;;;5033667;28;20025;-77
2023/07/10 11:31:16;;;;;;;9.63;4.43;;;30.90;75.30;;;;;;5037348;28;20025;-77
2023/07/10 11:33:43;;;;;;;6.68;4.72;;;30.90;74.90;;;;;;5044936;28;20029;-76
2023/07/10 11:36:36;;;;;;;8.27;5.03;;;30.90;74.00;;;;;;5016665;28;20018;-76
2023/07/10 11:39:11;;;;;;;6.00;4.77;;;30.90;72.80;;;;;;5012419;28;20037;-76
2023/07/10 11:42:02;;;;;;;5.85;4.82;;;30.90;73.60;;;;;;5013175;28;20029;-77
2023/07/10 11:44:28;;;;;;;6.60;4.25;;;30.90;74.40;;;;;;5012848;28;20433;-77
2023/07/10 11:46:57;;;;;;;8.40;5.00;;;30.90;74.80;;;;;;5013055;28;20049;-77
2023/07/10 11:49:25;;;;;;;7.28;4.97;;;30.90;74.40;;;;;;5012741;28;20029;-76
2023/07/10 11:52:18;;;;;;;7.22;4.85;;;30.80;74.10;;;;;;5031946;28;20037;-77
2023/07/10 11:54:47;;;;;;;9.05;4.28;;;30.80;74.70;;;;;;5032732;28;20080;-76
2023/07/10 11:57:19;;;;;;;9.50;4.82;;;30.80;74.60;;;;;;5031010;28;20101;-76
2023/07/10 11:59:50;;;;;;;6.25;4.40;;;30.90;74.70;;;;;;5032023;28;20511;-76
2023/07/10 12:02:27;;;;;;;5.32;4.53;;;30.80;74.20;;;;;;5032001;28;20026;-76
2023/07/10 12:04:53;;;;;;;7.85;4.07;;;30.90;74.10;;;;;;5032884;28;20537;-77
2023/07/10 12:07:19;;;;;;;6.72;4.10;;;30.90;73.60;;;;;;5033684;28;20029;-76
2023/07/10 12:09:52;;;;;;;7.38;5.32;;;30.90;72.30;;;;;;5015306;28;20024;-76
2023/07/10 12:12:18;;;;;;;7.00;4.85;;;31.00;72.00;;;;;;5031920;28;20076;-76
2023/07/10 12:14:43;;;;;;;6.38;4.40;;;31.10;70.70;;;;;;5031597;28;20345;-76
2023/07/10 12:17:17;;;;;;;8.32;4.30;;;31.10;69.80;;;;;;5032517;28;20036;-76
2023/07/10 12:19:43;;;;;;;6.47;4.13;;;31.20;69.60;;;;;;5014217;28;20055;-75
2023/07/10 12:22:23;;;;;;;7.32;4.15;;;31.30;69.90;;;;;;5031877;28;20084;-76
2023/07/10 12:24:56;;;;;;;4.35;3.65;;;31.30;69.00;;;;;;5032361;28;20026;-76
2023/07/10 12:27:23;;;;;;;8.77;4.70;;;31.40;67.90;;;;;;5014622;28;20029;-77
2023/07/10 12:29:54;;;;;;;6.18;4.40;;;31.50;68.20;;;;;;5024009;23;20050;-78
2023/07/10 12:32:23;;;;;;;7.40;4.88;;;31.60;67.40;;;;;;5017502;28;20084;-79
2023/07/10 12:34:49;;;;;;;5.15;4.43;;;31.80;67.30;;;;;;5016437;28;20114;-78
2023/07/10 12:37:16;;;;;;;7.30;4.40;;;31.90;66.20;;;;;;5017185;28;20105;-78
2023/07/10 12:39:48;;;;;;;6.55;4.43;;;31.90;66.00;;;;;;5015954;28;20033;-78
2023/07/10 12:42:32;;;;;;;7.50;4.45;;;31.90;64.80;;;;;;5004002;28;20072;-78
2023/07/10 12:45:03;;;;;;;6.15;4.57;;;31.90;63.40;;;;;;5006452;28;20026;-78
2023/07/10 12:47:33;;;;;;;7.20;4.53;;;31.90;62.80;;;;;;4998933;28;20112;-77
2023/07/10 12:49:59;;;;;;;6.72;4.30;;;31.90;62.50;;;;;;5000222;28;20041;-77
2023/07/10 12:52:34;;;;;;;5.75;4.10;;;31.90;63.50;;;;;;5010170;28;20037;-77
2023/07/10 12:55:03;;;;;;;6.00;3.83;;;31.90;63.20;;;;;;5001490;28;20125;-77